Time;durP1;ratioP1;P1;durP2;ratioP2;P2;SDS_P1;SDS_P2;PMS_P1;PMS_P2;Temp;Humidity;BMP_temperature;BMP_pressure;BME280_temperature;BME280_humidity;BME280_pressure;Samples;Min_cycle;Max_cycle;Signal;HPM_P1;HPM_P2
2024/03/02 00:01:43;;;;;;;40.10;27.00;;;;;;;2.59;100.00;100922.97;87643;271;137719;-80
2024/03/02 00:03:45;;;;;;;41.70;25.70;;;;;;;2.60;100.00;100921.66;87823;267;25347;-81
2024/03/02 00:05:51;;;;;;;36.80;27.30;;;;;;;2.59;100.00;100924.88;87678;278;136640;-80
2024/03/02 00:07:55;;;;;;;42.30;29.20;;;;;;;2.56;100.00;100921.92;87979;271;22568;-81
2024/03/02 00:09:57;;;;;;;39.30;29.10;;;;;;;2.54;100.00;100917.38;87625;275;136273;-81
2024/03/02 00:12:00;;;;;;;38.50;26.40;;;;;;;2.52;100.00;100921.89;87672;275;22565;-82
2024/03/02 00:14:03;;;;;;;42.40;28.10;;;;;;;2.50;100.00;100923.80;87709;275;25209;-81
2024/03/02 00:16:05;;;;;;;40.30;29.50;;;;;;;2.46;100.00;100922.91;87655;277;137466;-82
2024/03/02 00:18:11;;;;;;;47.20;28.20;;;;;;;2.45;100.00;100921.95;87741;271;24195;-80
2024/03/02 00:20:20;;;;;;;46.90;28.70;;;;;;;2.46;100.00;100922.17;87455;276;138225;-83
2024/03/02 00:22:22;;;;;;;41.60;28.80;;;;;;;2.51;100.00;100924.10;87931;271;25400;-81
2024/03/02 00:24:32;;;;;;;44.10;28.30;;;;;;;2.56;100.00;100924.42;87710;267;136930;-79
2024/03/02 00:26:35;;;;;;;40.70;28.10;;;;;;;2.59;100.00;100922.58;87571;276;25272;-80
2024/03/02 00:28:38;;;;;;;43.20;28.60;;;;;;;2.63;100.00;100919.14;87607;271;137608;-79
2024/03/02 00:30:59;;;;;;;44.60;30.60;;;;;;;2.63;100.00;100917.21;87600;272;22571;-82
2024/03/02 00:33:03;;;;;;;41.10;28.40;;;;;;;2.60;100.00;100907.44;87568;277;137574;-80
2024/03/02 00:35:05;;;;;;;45.30;29.80;;;;;;;2.54;100.00;100910.19;87578;275;22638;-79
2024/03/02 00:37:08;;;;;;;36.80;28.20;;;;;;;2.47;100.00;100915.59;87509;271;137192;-79
2024/03/02 00:39:13;;;;;;;43.60;30.40;;;;;;;2.40;100.00;100911.77;87729;279;22571;-80
2024/03/02 00:41:22;;;;;;;46.60;29.90;;;;;;;2.35;100.00;100912.56;87563;279;138030;-79
2024/03/02 00:43:23;;;;;;;43.30;28.30;;;;;;;2.34;100.00;100910.53;87596;278;25220;-80
2024/03/02 00:45:27;;;;;;;39.30;28.00;;;;;;;2.32;100.00;100910.11;87462;279;138069;-80
2024/03/02 00:47:28;;;;;;;45.10;29.10;;;;;;;2.32;100.00;100908.05;87667;270;22731;-78
2024/03/02 00:49:30;;;;;;;40.70;28.10;;;;;;;2.32;100.00;100908.71;87582;271;138242;-80
2024/03/02 00:51:34;;;;;;;44.40;29.80;;;;;;;2.32;100.00;100912.45;87614;274;22724;-80
2024/03/02 00:53:37;;;;;;;42.80;30.00;;;;;;;2.28;100.00;100910.63;87821;270;136231;-79
2024/03/02 00:55:44;;;;;;;37.70;27.90;;;;;;;2.24;100.00;100908.65;87666;271;25291;-80
2024/03/02 00:57:46;;;;;;;40.20;30.70;;;;;;;2.20;100.00;100910.55;88237;277;137438;-78
2024/03/02 00:59:48;;;;;;;41.60;29.60;;;;;;;2.17;100.00;100903.95;88568;268;24157;-78
2024/03/02 01:01:51;;;;;;;50.90;34.10;;;;;;;2.14;100.00;100906.45;88594;271;137382;-77
2024/03/02 01:03:53;;;;;;;44.30;30.90;;;;;;;2.15;100.00;100904.27;88408;274;22555;-79
2024/03/02 01:05:55;;;;;;;45.00;28.60;;;;;;;2.18;100.00;100904.73;87998;266;136842;-77
2024/03/02 01:07:57;;;;;;;42.80;31.90;;;;;;;2.20;100.00;100906.04;87987;270;22648;-77
2024/03/02 01:09:58;;;;;;;39.80;29.70;;;;;;;2.17;100.00;100906.74;87905;267;136890;-80
2024/03/02 01:12:00;;;;;;;41.70;29.60;;;;;;;2.16;100.00;100904.23;87794;271;24005;-80
2024/03/02 01:14:02;;;;;;;48.50;32.30;;;;;;;2.17;100.00;100900.09;87850;271;22557;-80
2024/03/02 01:16:04;;;;;;;40.80;30.90;;;;;;;2.18;100.00;100895.96;87699;267;138350;-80
2024/03/02 01:18:06;;;;;;;41.40;29.10;;;;;;;2.19;100.00;100897.32;87796;271;22565;-75
2024/03/02 01:20:09;;;;;;;41.30;31.30;;;;;;;2.18;100.00;100897.20;87669;275;136812;-79
2024/03/02 01:22:11;;;;;;;45.80;31.20;;;;;;;2.14;100.00;100898.23;87709;270;22571;-81
2024/03/02 01:24:13;;;;;;;41.70;29.50;;;;;;;2.09;100.00;100897.53;87437;276;136301;-78
2024/03/02 01:26:15;;;;;;;49.30;31.00;;;;;;;2.03;100.00;100897.00;87687;271;25130;-81
2024/03/02 01:28:18;;;;;;;43.30;29.30;;;;;;;1.99;100.00;100897.08;87683;266;137177;-80
2024/03/02 01:30:21;;;;;;;41.80;29.60;;;;;;;1.98;100.00;100891.94;87704;271;27276;-77
2024/03/02 01:32:23;;;;;;;39.00;29.40;;;;;;;1.98;100.00;100896.88;87495;271;136792;-79
2024/03/02 01:34:25;;;;;;;43.00;29.80;;;;;;;1.98;100.00;100894.91;87512;268;22581;-80
2024/03/02 01:36:27;;;;;;;40.70;29.00;;;;;;;2.00;100.00;100893.54;87420;275;138206;-81
2024/03/02 01:38:28;;;;;;;40.20;28.40;;;;;;;2.05;100.00;100892.65;87720;275;26107;-79
2024/03/02 01:40:30;;;;;;;46.90;31.70;;;;;;;2.05;100.00;100896.13;87549;271;137108;-80
2024/03/02 01:42:32;;;;;;;43.50;31.00;;;;;;;2.04;100.00;100897.05;87618;279;22564;-79
2024/03/02 01:44:34;;;;;;;44.90;31.10;;;;;;;2.04;100.00;100892.03;87540;278;136514;-80
2024/03/02 01:46:36;;;;;;;46.50;31.90;;;;;;;2.04;100.00;100891.52;87619;267;22559;-78
2024/03/02 01:48:38;;;;;;;49.30;32.20;;;;;;;2.04;100.00;100890.40;87458;271;137476;-79
2024/03/02 01:50:40;;;;;;;44.40;32.80;;;;;;;2.05;100.00;100895.92;87525;266;22727;-78
2024/03/02 01:52:44;;;;;;;48.90;32.20;;;;;;;2.06;100.00;100897.07;87557;278;136337;-76
2024/03/02 01:54:46;;;;;;;43.90;32.10;;;;;;;2.09;100.00;100899.98;87555;279;25233;-77
2024/03/02 01:56:47;;;;;;;45.40;32.20;;;;;;;2.15;100.00;100894.83;87441;268;138375;-77
2024/03/02 01:58:49;;;;;;;43.40;31.80;;;;;;;2.19;100.00;100901.89;87575;267;22556;-77
2024/03/02 02:00:51;;;;;;;45.50;31.80;;;;;;;2.20;100.00;100898.07;88229;270;137912;-78
2024/03/02 02:02:54;;;;;;;46.20;32.60;;;;;;;2.22;100.00;100900.08;87715;274;22555;-78
2024/03/02 02:04:55;;;;;;;43.90;30.90;;;;;;;2.22;100.00;100903.39;88140;275;139566;-77
2024/03/02 02:06:57;;;;;;;43.30;30.40;;;;;;;2.21;100.00;100903.86;87735;271;25121;-77
2024/03/02 02:08:59;;;;;;;41.20;31.10;;;;;;;2.16;100.00;100906.46;87686;270;136396;-77
2024/03/02 02:11:01;;;;;;;48.00;31.30;;;;;;;2.12;100.00;100907.33;87902;274;22527;-77
2024/03/02 02:13:03;;;;;;;49.20;33.60;;;;;;;2.08;100.00;100908.16;89319;271;136070;-76
2024/03/02 02:15:22;;;;;;;47.30;34.80;;;;;;;2.05;100.00;100905.44;89288;275;23075;-74
2024/03/02 02:17:24;;;;;;;48.00;32.80;;;;;;;2.01;100.00;100903.79;89481;267;136226;-75
2024/03/02 02:19:26;;;;;;;41.20;31.20;;;;;;;2.01;100.00;100901.30;89809;271;22569;-76
2024/03/02 02:21:28;;;;;;;36.70;29.10;;;;;;;2.03;100.00;100898.19;89451;271;137125;-75
2024/03/02 02:23:30;;;;;;;42.00;31.20;;;;;;;2.02;100.00;100893.89;87804;271;25127;-77
2024/03/02 02:25:31;;;;;;;42.10;29.10;;;;;;;1.99;100.00;100893.96;87719;279;137208;-77
2024/03/02 02:27:33;;;;;;;48.30;31.20;;;;;;;1.98;100.00;100894.39;87707;267;23792;-77
2024/03/02 02:29:35;;;;;;;41.20;29.20;;;;;;;1.98;100.00;100894.55;87554;271;137058;-76
2024/03/02 02:31:38;;;;;;;38.50;29.80;;;;;;;1.98;100.00;100896.69;87664;271;22579;-78
2024/03/02 02:33:41;;;;;;;43.50;31.40;;;;;;;1.94;100.00;100899.77;87743;271;136308;-77
2024/03/02 02:35:43;;;;;;;39.90;30.90;;;;;;;1.90;100.00;100896.38;87666;271;24348;-78
2024/03/02 02:37:48;;;;;;;46.00;31.60;;;;;;;1.87;100.00;100898.07;87451;268;137348;-79
2024/03/02 02:39:50;;;;;;;40.10;29.50;;;;;;;1.82;100.00;100896.15;87556;271;24154;-76
2024/03/02 02:41:52;;;;;;;41.40;28.50;;;;;;;1.79;100.00;100897.45;87417;271;136680;-77
2024/03/02 02:43:54;;;;;;;48.60;30.90;;;;;;;1.75;100.00;100894.73;87649;270;24216;-78
2024/03/02 02:45:55;;;;;;;42.60;29.20;;;;;;;1.72;100.00;100888.79;87673;271;137866;-79
2024/03/02 02:47:57;;;;;;;45.50;30.40;;;;;;;1.71;100.00;100889.66;88168;271;22565;-77
2024/03/02 02:49:59;;;;;;;40.10;28.80;;;;;;;1.70;100.00;100889.02;89097;279;136614;-77
2024/03/02 02:52:00;;;;;;;40.20;29.50;;;;;;;1.70;100.00;100895.30;88422;267;22829;-80
2024/03/02 02:54:03;;;;;;;40.30;27.60;;;;;;;1.71;100.00;100894.46;87802;267;22671;-79
2024/03/02 02:56:04;;;;;;;44.00;30.30;;;;;;;1.70;100.00;100896.16;88987;267;136467;-80
2024/03/02 02:58:06;;;;;;;41.70;30.00;;;;;;;1.67;100.00;100897.58;88511;266;25217;-79
2024/03/02 03:00:14;;;;;;;42.60;31.20;;;;;;;1.66;100.00;100895.11;87688;266;136549;-80
2024/03/02 03:02:17;;;;;;;44.80;31.90;;;;;;;1.62;100.00;100901.30;88191;268;749273;-77
2024/03/02 03:04:19;;;;;;;43.70;31.70;;;;;;;1.59;100.00;100901.75;87429;279;136401;-79
2024/03/02 03:06:20;;;;;;;45.90;34.00;;;;;;;1.56;100.00;100898.98;87543;271;22563;-79
2024/03/02 03:08:23;;;;;;;45.70;33.00;;;;;;;1.54;100.00;100897.35;87479;274;138279;-79
2024/03/02 03:10:26;;;;;;;46.80;32.60;;;;;;;1.53;100.00;100905.89;87454;272;25101;-78
2024/03/02 03:12:31;;;;;;;46.30;32.80;;;;;;;1.51;100.00;100903.60;87399;271;137998;-78
2024/03/02 03:14:32;;;;;;;43.90;31.70;;;;;;;1.47;100.00;100901.96;87549;272;25090;-77
2024/03/02 03:16:34;;;;;;;46.70;32.00;;;;;;;1.44;100.00;100906.35;87468;275;138213;-77
2024/03/02 03:18:36;;;;;;;46.40;33.20;;;;;;;1.44;100.00;100906.04;87545;272;22625;-78
2024/03/02 03:20:38;;;;;;;46.20;34.00;;;;;;;1.38;100.00;100902.61;87345;279;136592;-77
2024/03/02 03:22:40;;;;;;;46.00;33.50;;;;;;;1.31;100.00;100901.73;87581;273;22650;-77
2024/03/02 03:24:41;;;;;;;52.80;35.80;;;;;;;1.24;100.00;100898.55;87479;267;137773;-77
2024/03/02 03:26:43;;;;;;;54.50;35.30;;;;;;;1.17;100.00;100893.31;87580;272;22577;-78
2024/03/02 03:28:45;;;;;;;51.10;35.80;;;;;;;1.12;100.00;100901.03;87332;272;136805;-77
2024/03/02 03:30:46;;;;;;;44.50;34.40;;;;;;;1.11;100.00;100897.07;87629;266;25159;-77
2024/03/02 03:32:48;;;;;;;45.70;32.10;;;;;;;1.10;100.00;100896.98;87500;274;137925;-78
2024/03/02 03:34:50;;;;;;;46.90;32.30;;;;;;;1.07;100.00;100895.50;87530;270;22585;-77
2024/03/02 03:36:52;;;;;;;43.10;32.50;;;;;;;1.02;100.00;100891.30;87432;269;136938;-77
2024/03/02 03:38:54;;;;;;;45.50;31.70;;;;;;;0.98;100.00;100889.98;87489;271;22569;-76
2024/03/02 03:40:55;;;;;;;47.20;30.30;;;;;;;0.95;100.00;100888.63;87548;279;137004;-77
2024/03/02 03:42:58;;;;;;;42.80;32.10;;;;;;;0.93;100.00;100888.61;87555;270;25236;-77
2024/03/02 03:45:00;;;;;;;45.80;31.50;;;;;;;0.90;100.00;100889.15;87557;278;136432;-79
2024/03/02 03:47:02;;;;;;;43.10;30.30;;;;;;;0.86;100.00;100892.12;87495;272;23466;-78
2024/03/02 03:49:05;;;;;;;45.30;33.30;;;;;;;0.78;100.00;100889.86;87840;267;137714;-79
2024/03/02 03:51:07;;;;;;;49.00;33.00;;;;;;;0.71;100.00;100887.74;87647;271;22568;-78
2024/03/02 03:53:08;;;;;;;47.60;33.70;;;;;;;0.66;100.00;100888.32;87562;276;137115;-76
2024/03/02 03:55:10;;;;;;;47.10;32.20;;;;;;;0.65;100.00;100889.98;87671;271;25182;-78
2024/03/02 03:57:12;;;;;;;49.50;33.10;;;;;;;0.63;100.00;100885.70;87109;278;137299;-74
2024/03/02 03:59:13;;;;;;;40.20;32.90;;;;;;;0.62;100.00;100886.12;87397;278;23681;-80
2024/03/02 04:01:15;;;;;;;49.00;33.20;;;;;;;0.62;100.00;100882.84;87544;278;137057;-76
2024/03/02 04:03:17;;;;;;;46.10;31.40;;;;;;;0.61;100.00;100881.50;89060;267;22582;-76
2024/03/02 04:05:19;;;;;;;40.50;30.50;;;;;;;0.60;100.00;100879.45;89838;275;136645;-76
2024/03/02 04:07:21;;;;;;;38.40;29.80;;;;;;;0.60;100.00;100883.81;89374;271;22717;-78
2024/03/02 04:09:22;;;;;;;47.60;32.10;;;;;;;0.62;100.00;100881.23;87506;271;138059;-77
2024/03/02 04:11:24;;;;;;;48.30;31.60;;;;;;;0.63;100.00;100879.76;87952;271;23185;-83
2024/03/02 04:13:26;;;;;;;46.10;30.40;;;;;;;0.65;100.00;100876.98;87415;280;136526;-81
2024/03/02 04:15:27;;;;;;;39.40;28.50;;;;;;;0.65;100.00;100882.56;87474;279;22642;-82
2024/03/02 04:17:32;;;;;;;41.00;30.70;;;;;;;0.61;100.00;100878.15;87491;275;136661;-83
2024/03/02 04:19:34;;;;;;;45.80;29.70;;;;;;;0.57;100.00;100881.20;87539;269;26015;-81
2024/03/02 04:21:36;;;;;;;42.20;29.80;;;;;;;0.58;100.00;100885.34;87366;268;137083;-80
2024/03/02 04:23:38;;;;;;;41.70;30.70;;;;;;;0.60;100.00;100879.14;87462;271;25297;-83
2024/03/02 04:25:40;;;;;;;40.20;30.10;;;;;;;0.63;100.00;100879.11;87547;279;136923;-81
2024/03/02 04:27:42;;;;;;;39.70;30.50;;;;;;;0.66;100.00;100879.70;87543;279;22564;-78
2024/03/02 04:29:44;;;;;;;40.00;28.50;;;;;;;0.67;100.00;100877.34;87492;272;136766;-80
2024/03/02 04:31:45;;;;;;;45.30;29.40;;;;;;;0.66;100.00;100884.79;87566;273;24010;-82
2024/03/02 04:33:47;;;;;;;37.40;28.00;;;;;;;0.67;100.00;100880.73;87491;271;137517;-81
2024/03/02 04:35:49;;;;;;;39.70;28.30;;;;;;;0.67;100.00;100879.98;88043;271;22576;-79
2024/03/02 04:37:51;;;;;;;37.70;29.90;;;;;;;0.69;100.00;100883.20;88883;267;136715;-79
2024/03/02 04:39:53;;;;;;;45.10;30.80;;;;;;;0.70;100.00;100888.53;89431;267;24004;-77
2024/03/02 04:41:55;;;;;;;46.20;30.90;;;;;;;0.68;100.00;100884.82;90172;273;137316;-77
2024/03/02 04:43:56;;;;;;;40.80;30.10;;;;;;;0.68;100.00;100882.89;90252;266;22590;-76
2024/03/02 04:46:07;;;;;;;34.90;28.70;;;;;;;0.69;100.00;100880.90;90218;267;135724;-75
2024/03/02 04:48:09;;;;;;;40.00;29.80;;;;;;;0.71;100.00;100883.21;89711;268;136703;-75
2024/03/02 04:50:11;;;;;;;42.90;27.70;;;;;;;0.75;100.00;100883.11;90052;267;22730;-80
2024/03/02 04:52:12;;;;;;;43.40;30.80;;;;;;;0.79;100.00;100882.80;88709;267;137030;-81
2024/03/02 04:54:17;;;;;;;44.00;30.70;;;;;;;0.84;100.00;100882.06;88374;272;25171;-81
2024/03/02 04:58:41;;;;;;;40.80;28.40;;;;;;;1.03;100.00;100877.19;88005;271;22726;-80
2024/03/02 05:00:46;;;;;;;40.70;27.60;;;;;;;1.18;100.00;100881.20;87779;275;136773;-78
2024/03/02 05:02:48;;;;;;;;;;;;;;;1.33;100.00;100884.40;87756;272;23075;-80
2024/03/02 05:04:50;;;;;;;38.90;28.10;;;;;;;1.47;100.00;100882.35;88025;271;123689;-79
2024/03/02 05:06:54;;;;;;;42.20;27.60;;;;;;;1.56;100.00;100883.27;87966;267;24096;-81
2024/03/02 05:08:57;;;;;;;38.70;27.00;;;;;;;1.72;100.00;100885.55;88045;267;136314;-81
2024/03/02 05:11:28;;;;;;;39.00;27.50;;;;;;;1.89;100.00;100881.55;88041;271;23684;-78
2024/03/02 05:13:20;;;;;;;41.00;28.30;;;;;;;2.14;100.00;100884.07;87831;267;136557;-83
2024/03/02 05:15:23;;;;;;;40.20;28.40;;;;;;;2.39;100.00;100880.34;87876;279;25150;-83
2024/03/02 05:17:24;;;;;;;38.80;28.60;;;;;;;2.64;100.00;100885.86;87400;271;136757;-78
2024/03/02 05:19:26;;;;;;;39.60;27.50;;;;;;;2.92;100.00;100884.44;87938;278;23776;-80
2024/03/02 05:21:28;;;;;;;35.50;28.20;;;;;;;3.20;100.00;100885.88;87701;270;136272;-82
2024/03/02 05:23:29;;;;;;;36.80;27.60;;;;;;;3.44;100.00;100888.13;88291;278;23753;-79
2024/03/02 05:25:32;;;;;;;39.10;29.10;;;;;;;3.62;100.00;100884.45;87677;271;136207;-79
2024/03/02 05:27:34;;;;;;;34.20;27.80;;;;;;;3.80;100.00;100883.88;87690;271;22585;-80
2024/03/02 05:29:36;;;;;;;32.70;26.80;;;;;;;3.96;100.00;100888.59;87449;271;137379;-79
2024/03/02 05:31:38;;;;;;;42.00;27.40;;;;;;;4.20;100.00;100887.61;87503;271;22638;-78
2024/03/02 05:33:40;;;;;;;32.90;25.30;;;;;;;4.46;99.27;100889.23;87485;278;136234;-79
2024/03/02 05:35:44;;;;;;;38.70;27.40;;;;;;;4.72;95.70;100894.52;87423;267;25124;-77
2024/03/02 05:37:45;;;;;;;40.00;27.40;;;;;;;4.91;93.89;100891.19;87474;271;136122;-77
2024/03/02 05:39:47;;;;;;;38.70;26.60;;;;;;;5.15;92.59;100892.59;87559;279;24074;-78
2024/03/02 05:41:49;;;;;;;39.90;27.00;;;;;;;5.41;90.34;100887.89;87463;266;136089;-81
2024/03/02 05:43:51;;;;;;;36.70;26.50;;;;;;;5.62;88.21;100882.33;87871;271;22702;-81
2024/03/02 05:45:52;;;;;;;29.40;24.40;;;;;;;5.84;87.19;100884.86;87745;267;137450;-81
2024/03/02 05:47:54;;;;;;;31.40;25.30;;;;;;;6.06;84.81;100879.45;87996;271;22589;-79
2024/03/02 05:49:56;;;;;;;30.90;25.10;;;;;;;6.25;82.86;100882.35;87892;271;135985;-80
2024/03/02 05:51:58;;;;;;;33.40;25.90;;;;;;;6.36;79.50;100881.05;87803;271;22737;-78
2024/03/02 05:54:00;;;;;;;33.10;24.60;;;;;;;6.46;80.72;100886.92;87575;271;136062;-79
2024/03/02 05:56:01;;;;;;;34.60;25.10;;;;;;;6.69;78.68;100884.39;87817;274;22551;-80
2024/03/02 06:00:08;;;;;;;31.20;26.60;;;;;;;6.74;76.22;100880.70;87692;270;136225;-81
2024/03/02 06:02:13;;;;;;;30.60;24.10;;;;;;;6.85;76.97;100881.38;87688;278;22662;-82
2024/03/02 06:04:15;;;;;;;33.10;25.80;;;;;;;7.14;76.40;100879.26;87536;274;136219;-83
2024/03/02 06:06:16;;;;;;;31.70;26.30;;;;;;;7.46;75.10;100886.63;87673;275;22581;-85
2024/03/02 06:08:18;;;;;;;32.00;25.20;;;;;;;7.78;73.47;100883.95;87640;271;136246;-79
2024/03/02 06:10:20;;;;;;;35.70;26.40;;;;;;;8.03;70.64;100886.04;87701;270;23333;-81
2024/03/02 06:12:22;;;;;;;33.40;25.40;;;;;;;8.20;70.44;100886.48;87685;270;136698;-79
2024/03/02 06:14:24;;;;;;;30.70;24.20;;;;;;;8.45;69.01;100887.46;87735;271;22563;-82
2024/03/02 06:16:26;;;;;;;29.70;25.50;;;;;;;8.62;67.30;100884.50;87589;277;136380;-81
2024/03/02 06:18:28;;;;;;;30.70;25.80;;;;;;;8.72;66.67;100890.31;87853;273;22539;-82
2024/03/02 06:20:32;;;;;;;27.90;23.10;;;;;;;8.84;65.59;100888.41;87583;270;136220;-76
2024/03/02 06:22:37;;;;;;;29.50;25.20;;;;;;;8.90;65.31;100887.89;87670;270;24010;-75
2024/03/02 06:24:39;;;;;;;30.00;24.80;;;;;;;9.01;64.39;100889.80;87789;267;136379;-79
2024/03/02 06:26:41;;;;;;;27.20;23.70;;;;;;;9.07;63.90;100882.33;87593;268;22648;-79
2024/03/02 06:28:43;;;;;;;30.90;25.40;;;;;;;9.10;63.30;100888.11;87623;269;137540;-78
2024/03/02 06:30:45;;;;;;;32.00;25.50;;;;;;;9.03;63.28;100890.13;87581;279;22574;-80
2024/03/02 06:32:47;;;;;;;35.20;25.20;;;;;;;8.85;63.57;100888.24;87566;271;136234;-80
2024/03/02 06:34:48;;;;;;;27.60;23.80;;;;;;;8.57;63.43;100894.79;87710;278;22546;-75
2024/03/02 06:36:50;;;;;;;29.70;24.00;;;;;;;8.15;64.31;100896.98;87635;263;136185;-80
2024/03/02 06:38:52;;;;;;;31.30;24.90;;;;;;;7.68;65.46;100898.38;87599;267;22552;-81
2024/03/02 06:40:55;;;;;;;29.00;23.70;;;;;;;7.27;67.01;100887.69;87572;275;136044;-79
2024/03/02 06:42:57;;;;;;;28.00;24.10;;;;;;;6.88;68.49;100884.83;87602;268;22620;-78
2024/03/02 06:44:59;;;;;;;30.10;22.80;;;;;;;6.47;70.11;100886.11;87606;267;136266;-78
2024/03/02 06:47:01;;;;;;;36.60;25.80;;;;;;;6.10;72.16;100885.63;87565;271;22641;-78
2024/03/02 06:49:03;;;;;;;35.80;26.00;;;;;;;5.79;73.67;100890.46;87449;275;136461;-81
2024/03/02 06:51:05;;;;;;;32.80;26.60;;;;;;;5.54;75.17;100889.91;87632;277;23224;-79
2024/03/02 06:53:07;;;;;;;33.70;26.50;;;;;;;5.35;76.42;100895.33;87607;274;136096;-82
2024/03/02 06:55:09;;;;;;;41.30;26.00;;;;;;;5.14;77.81;100889.47;87701;278;22559;-83
2024/03/02 06:57:11;;;;;;;33.30;27.60;;;;;;;4.90;80.28;100893.73;87578;271;137379;-81
2024/03/02 06:59:13;;;;;;;32.50;26.20;;;;;;;4.70;81.22;100892.05;87528;269;22680;-80
2024/03/02 07:01:14;;;;;;;36.20;29.10;;;;;;;4.56;82.54;100891.84;87710;275;137196;-78
2024/03/02 07:04:30;;;;;;;37.10;28.00;;;;;;;4.23;84.96;100888.04;85443;305;603105;-80
2024/03/02 07:06:32;;;;;;;34.10;26.00;;;;;;;4.13;86.33;100887.53;86651;286;22613;-80
2024/03/02 07:08:34;;;;;;;34.50;27.10;;;;;;;4.10;88.19;100879.68;89139;271;135296;-76
2024/03/02 07:10:35;;;;;;;37.10;27.90;;;;;;;4.04;89.23;100878.55;89117;272;22600;-75
2024/03/02 07:12:37;;;;;;;34.30;27.60;;;;;;;4.01;89.26;100875.69;87650;272;135279;-77
2024/03/02 07:16:59;;;;;;;31.40;25.30;;;;;;;4.15;89.51;100879.13;87125;276;136268;-79
2024/03/02 07:19:01;;;;;;;31.50;24.60;;;;;;;4.21;89.30;100878.34;86789;274;730393;-77
2024/03/02 07:21:03;;;;;;;33.00;26.00;;;;;;;4.29;89.25;100876.77;87284;281;136635;-79
2024/03/02 07:23:05;;;;;;;37.10;27.80;;;;;;;4.37;89.29;100870.84;87379;278;22563;-80
2024/03/02 07:25:07;;;;;;;31.20;25.40;;;;;;;4.42;89.23;100867.23;87234;278;136987;-80
2024/03/02 07:27:12;;;;;;;36.00;27.70;;;;;;;4.48;89.45;100869.33;87485;274;24030;-79
2024/03/02 07:29:14;;;;;;;33.60;26.90;;;;;;;4.57;88.70;100866.29;87280;275;135904;-78
2024/03/02 07:31:16;;;;;;;35.20;26.40;;;;;;;4.61;88.08;100867.16;87439;274;25328;-77
2024/03/02 07:33:17;;;;;;;33.00;25.60;;;;;;;4.64;88.04;100866.30;87428;278;137579;-79
2024/03/02 07:35:19;;;;;;;35.20;28.10;;;;;;;4.71;87.76;100866.23;87507;274;23449;-77
2024/03/02 07:37:23;;;;;;;40.40;28.30;;;;;;;4.77;86.70;100874.52;87182;274;135985;-78
2024/03/02 07:39:25;;;;;;;40.20;30.20;;;;;;;4.80;85.70;100869.80;87569;269;22705;-72
2024/03/02 07:41:27;;;;;;;39.40;28.80;;;;;;;4.81;85.61;100865.55;87303;274;136999;-83
2024/03/02 07:43:28;;;;;;;36.30;27.90;;;;;;;4.81;85.18;100859.54;87581;269;23642;-83
2024/03/02 07:45:31;;;;;;;39.80;31.10;;;;;;;4.80;85.56;100869.69;88162;275;135546;-71
2024/03/02 07:47:36;;;;;;;41.70;29.60;;;;;;;4.82;85.13;100856.59;87414;270;22654;-69
2024/03/02 07:49:38;;;;;;;39.80;29.10;;;;;;;4.85;84.48;100861.30;87359;274;136444;-71
2024/03/02 07:51:40;;;;;;;36.00;29.40;;;;;;;4.86;83.77;100851.15;87158;272;22598;-71
2024/03/02 07:53:42;;;;;;;35.40;28.70;;;;;;;4.88;83.40;100846.02;87394;270;136928;-73
2024/03/02 07:55:46;;;;;;;34.10;28.60;;;;;;;4.91;83.13;100846.01;87452;271;24148;-73
2024/03/02 07:57:47;;;;;;;40.00;28.50;;;;;;;4.95;82.78;100846.14;87412;282;136371;-71
2024/03/02 07:59:49;;;;;;;38.80;29.60;;;;;;;4.93;82.18;100851.23;87268;282;22567;-71
2024/03/02 08:01:51;;;;;;;35.70;27.70;;;;;;;4.90;81.50;100848.00;87131;275;135781;-71
2024/03/02 08:03:55;;;;;;;38.60;27.60;;;;;;;4.88;82.10;100852.70;87109;280;22550;-72
2024/03/02 08:05:57;;;;;;;35.50;27.70;;;;;;;4.92;81.81;100846.95;87643;271;135515;-80
2024/03/02 08:07:58;;;;;;;35.80;26.30;;;;;;;4.96;81.67;100841.11;88019;270;23531;-84
2024/03/02 08:10:00;;;;;;;39.00;28.90;;;;;;;5.04;82.29;100850.03;87218;279;139410;-68
2024/03/02 08:12:03;;;;;;;34.90;29.50;;;;;;;5.16;81.70;100846.19;87387;273;25201;-72
2024/03/02 08:14:04;;;;;;;41.40;29.60;;;;;;;5.24;80.77;100845.95;87409;273;24164;-70
2024/03/02 08:16:09;;;;;;;43.30;32.40;;;;;;;5.24;80.43;100843.62;87329;269;136236;-70
2024/03/02 08:18:11;;;;;;;40.90;29.30;;;;;;;5.24;79.80;100840.13;87554;272;22565;-70
2024/03/02 08:20:13;;;;;;;41.10;31.20;;;;;;;5.29;79.58;100845.17;87409;269;136054;-72
2024/03/02 08:22:15;;;;;;;45.10;31.60;;;;;;;5.34;78.89;100848.55;87405;269;22569;-69
2024/03/02 08:24:17;;;;;;;36.80;29.70;;;;;;;5.37;78.32;100833.13;87443;277;135939;-69
2024/03/02 08:26:18;;;;;;;34.80;29.40;;;;;;;5.40;78.36;100842.39;87481;268;22590;-68
2024/03/02 08:28:20;;;;;;;35.60;28.40;;;;;;;5.43;78.10;100840.89;87066;273;136844;-71
2024/03/02 08:30:22;;;;;;;32.20;25.20;;;;;;;5.46;77.76;100847.84;87262;278;22558;-70
2024/03/02 08:32:24;;;;;;;31.80;26.30;;;;;;;5.51;76.89;100843.15;87214;269;135578;-69
2024/03/02 08:34:26;;;;;;;37.30;27.70;;;;;;;5.53;76.91;100837.99;87400;272;22575;-71
2024/03/02 08:36:27;;;;;;;32.00;27.10;;;;;;;5.56;76.75;100845.11;87333;273;135888;-70
2024/03/02 08:38:29;;;;;;;33.00;25.50;;;;;;;5.59;76.07;100840.98;87511;272;22558;-72
2024/03/02 08:40:31;;;;;;;32.50;25.30;;;;;;;5.59;75.51;100850.29;87375;288;135670;-70
2024/03/02 08:42:33;;;;;;;30.70;23.30;;;;;;;5.57;75.90;100843.27;87371;278;23308;-71
2024/03/02 08:44:35;;;;;;;27.00;22.80;;;;;;;5.55;76.03;100833.89;87468;269;137156;-70
2024/03/02 08:46:38;;;;;;;33.20;25.10;;;;;;;5.53;76.28;100832.35;87600;269;22638;-73
2024/03/02 08:48:40;;;;;;;28.40;22.70;;;;;;;5.54;76.53;100839.50;87522;277;137220;-70
2024/03/02 08:50:42;;;;;;;29.20;23.20;;;;;;;5.56;76.19;100844.23;87599;274;23198;-71
2024/03/02 08:52:43;;;;;;;29.00;24.20;;;;;;;5.62;75.99;100833.98;87442;270;135716;-72
2024/03/02 08:54:45;;;;;;;30.80;24.10;;;;;;;5.66;75.83;100831.52;87555;273;22755;-72
2024/03/02 08:56:48;;;;;;;29.50;23.90;;;;;;;5.71;75.11;100834.58;87433;266;135549;-71
2024/03/02 08:58:51;;;;;;;30.20;24.90;;;;;;;5.76;74.89;100835.51;87768;270;22567;-72
2024/03/02 09:00:54;;;;;;;33.40;23.00;;;;;;;5.82;74.57;100838.48;87707;265;135896;-73
2024/03/02 09:02:56;;;;;;;30.10;26.00;;;;;;;5.80;74.13;100840.59;87575;275;23997;-77
2024/03/02 09:04:57;;;;;;;30.50;24.20;;;;;;;5.77;74.57;100826.58;87628;268;135717;-76
2024/03/02 09:07:00;;;;;;;32.70;24.00;;;;;;;5.77;74.91;100825.14;87586;276;22568;-72
2024/03/02 09:09:02;;;;;;;31.20;22.90;;;;;;;5.82;75.37;100830.72;87685;276;135963;-72
2024/03/02 09:11:06;;;;;;;27.00;21.50;;;;;;;5.87;75.27;100831.98;87283;266;23745;-73
2024/03/02 09:13:08;;;;;;;31.00;22.20;;;;;;;5.92;75.17;100829.42;87570;267;135960;-72
2024/03/02 09:15:10;;;;;;;27.20;22.50;;;;;;;5.98;74.93;100824.65;87956;266;23704;-81
2024/03/02 09:17:12;;;;;;;25.20;20.80;;;;;;;6.06;74.98;100821.60;87089;273;136608;-78
2024/03/02 09:19:14;;;;;;;28.30;22.40;;;;;;;6.15;74.48;100826.16;87241;270;22873;-72
2024/03/02 09:21:16;;;;;;;23.80;20.40;;;;;;;6.24;74.04;100824.10;87031;279;137511;-77
2024/03/02 09:23:18;;;;;;;29.40;21.30;;;;;;;6.33;73.75;100825.13;87328;269;22564;-76
2024/03/02 09:25:20;;;;;;;25.50;19.80;;;;;;;6.41;73.23;100818.00;87350;266;135960;-73
2024/03/02 09:27:22;;;;;;;25.30;20.40;;;;;;;6.48;73.51;100815.47;87195;269;25257;-73
2024/03/02 09:29:24;;;;;;;20.00;18.00;;;;;;;6.56;72.83;100816.20;87294;266;140469;-74
2024/03/02 09:31:25;;;;;;;26.40;18.50;;;;;;;6.66;71.55;100817.70;87263;269;25087;-74